sensor_id;sensor_type;location;lat;lon;timestamp;P1;durP1;ratioP1;P2;durP2;ratioP2
21777;SDS011;11050;52.222;20.916;2022-07-01T00:02:23;12.50;;;8.20;;
21777;SDS011;11050;52.222;20.916;2022-07-01T00:04:50;13.30;;;8.77;;
21777;SDS011;11050;52.222;20.916;2022-07-01T00:07:16;12.82;;;9.23;;
21777;SDS011;11050;52.222;20.916;2022-07-01T00:09:42;10.93;;;8.98;;
21777;SDS011;11050;52.222;20.916;2022-07-01T00:12:08;10.95;;;9.38;;
21777;SDS011;11050;52.222;20.916;2022-07-01T00:14:34;13.20;;;9.77;;
21777;SDS011;11050;52.222;20.916;2022-07-01T00:17:01;13.05;;;9.75;;
21777;SDS011;11050;52.222;20.916;2022-07-01T00:19:27;13.80;;;10.18;;
21777;SDS011;11050;52.222;20.916;2022-07-01T00:21:53;12.35;;;10.13;;
21777;SDS011;11050;52.222;20.916;2022-07-01T00:24:19;12.73;;;9.80;;
21777;SDS011;11050;52.222;20.916;2022-07-01T00:26:44;15.48;;;10.07;;
21777;SDS011;11050;52.222;20.916;2022-07-01T00:29:10;12.50;;;9.98;;
21777;SDS011;11050;52.222;20.916;2022-07-01T00:31:36;14.73;;;10.88;;
21777;SDS011;11050;52.222;20.916;2022-07-01T00:34:03;12.07;;;9.88;;
21777;SDS011;11050;52.222;20.916;2022-07-01T00:36:29;13.50;;;10.00;;
21777;SDS011;11050;52.222;20.916;2022-07-01T00:38:55;15.98;;;10.68;;
21777;SDS011;11050;52.222;20.916;2022-07-01T00:41:21;11.93;;;10.73;;
21777;SDS011;11050;52.222;20.916;2022-07-01T00:43:47;14.25;;;10.90;;
21777;SDS011;11050;52.222;20.916;2022-07-01T00:46:13;14.45;;;11.88;;
21777;SDS011;11050;52.222;20.916;2022-07-01T00:48:39;14.80;;;11.68;;
21777;SDS011;11050;52.222;20.916;2022-07-01T00:51:06;11.93;;;10.40;;
21777;SDS011;11050;52.222;20.916;2022-07-01T00:53:32;14.50;;;11.98;;
21777;SDS011;11050;52.222;20.916;2022-07-01T00:55:58;13.75;;;11.80;;
21777;SDS011;11050;52.222;20.916;2022-07-01T00:58:27;15.95;;;12.10;;
21777;SDS011;11050;52.222;20.916;2022-07-01T01:00:55;18.80;;;12.32;;
21777;SDS011;11050;52.222;20.916;2022-07-01T01:03:23;13.35;;;12.05;;
21777;SDS011;11050;52.222;20.916;2022-07-01T01:05:50;18.60;;;11.98;;
21777;SDS011;11050;52.222;20.916;2022-07-01T01:08:20;15.77;;;13.05;;
21777;SDS011;11050;52.222;20.916;2022-07-01T01:10:45;19.88;;;12.32;;
21777;SDS011;11050;52.222;20.916;2022-07-01T01:13:12;13.98;;;12.45;;
21777;SDS011;11050;52.222;20.916;2022-07-01T01:15:38;14.38;;;12.95;;
21777;SDS011;11050;52.222;20.916;2022-07-01T01:18:05;16.40;;;12.27;;
21777;SDS011;11050;52.222;20.916;2022-07-01T01:20:35;17.60;;;12.07;;
21777;SDS011;11050;52.222;20.916;2022-07-01T01:23:02;13.73;;;11.57;;
21777;SDS011;11050;52.222;20.916;2022-07-01T01:25:32;19.45;;;12.10;;
21777;SDS011;11050;52.222;20.916;2022-07-01T01:28:02;15.68;;;12.13;;
21777;SDS011;11050;52.222;20.916;2022-07-01T01:30:28;19.02;;;11.98;;
21777;SDS011;11050;52.222;20.916;2022-07-01T01:32:55;16.17;;;12.25;;
21777;SDS011;11050;52.222;20.916;2022-07-01T01:35:21;15.48;;;11.13;;
21777;SDS011;11050;52.222;20.916;2022-07-01T01:37:48;14.30;;;11.73;;
21777;SDS011;11050;52.222;20.916;2022-07-01T01:40:14;14.10;;;11.85;;
21777;SDS011;11050;52.222;20.916;2022-07-01T01:42:41;15.73;;;11.90;;
21777;SDS011;11050;52.222;20.916;2022-07-01T01:45:09;14.73;;;11.10;;
21777;SDS011;11050;52.222;20.916;2022-07-01T01:47:36;13.52;;;11.20;;
21777;SDS011;11050;52.222;20.916;2022-07-01T01:50:06;14.20;;;11.23;;
21777;SDS011;11050;52.222;20.916;2022-07-01T01:52:36;15.30;;;11.55;;
21777;SDS011;11050;52.222;20.916;2022-07-01T01:55:03;17.77;;;11.50;;
21777;SDS011;11050;52.222;20.916;2022-07-01T01:57:30;15.02;;;11.57;;
21777;SDS011;11050;52.222;20.916;2022-07-01T01:59:56;21.48;;;12.18;;
21777;SDS011;11050;52.222;20.916;2022-07-01T02:02:22;16.38;;;11.70;;
21777;SDS011;11050;52.222;20.916;2022-07-01T02:04:48;15.23;;;11.27;;
21777;SDS011;11050;52.222;20.916;2022-07-01T02:07:14;15.93;;;11.32;;
21777;SDS011;11050;52.222;20.916;2022-07-01T02:09:40;15.27;;;11.45;;
21777;SDS011;11050;52.222;20.916;2022-07-01T02:12:06;13.75;;;11.05;;
21777;SDS011;11050;52.222;20.916;2022-07-01T02:14:32;15.25;;;11.30;;
21777;SDS011;11050;52.222;20.916;2022-07-01T02:16:58;15.40;;;11.90;;
21777;SDS011;11050;52.222;20.916;2022-07-01T02:19:24;13.90;;;11.63;;
21777;SDS011;11050;52.222;20.916;2022-07-01T02:21:50;13.25;;;11.85;;
21777;SDS011;11050;52.222;20.916;2022-07-01T02:24:16;22.13;;;11.70;;
21777;SDS011;11050;52.222;20.916;2022-07-01T02:26:43;14.93;;;12.80;;
21777;SDS011;11050;52.222;20.916;2022-07-01T02:29:10;14.15;;;11.48;;
21777;SDS011;11050;52.222;20.916;2022-07-01T02:31:36;13.77;;;11.50;;
21777;SDS011;11050;52.222;20.916;2022-07-01T02:34:01;17.27;;;12.32;;
21777;SDS011;11050;52.222;20.916;2022-07-01T02:36:27;13.05;;;11.32;;
21777;SDS011;11050;52.222;20.916;2022-07-01T02:38:53;14.18;;;12.55;;
21777;SDS011;11050;52.222;20.916;2022-07-01T02:41:19;13.98;;;11.77;;
21777;SDS011;11050;52.222;20.916;2022-07-01T02:43:44;17.67;;;12.38;;
21777;SDS011;11050;52.222;20.916;2022-07-01T02:46:10;15.25;;;11.93;;
21777;SDS011;11050;52.222;20.916;2022-07-01T02:48:36;14.85;;;12.88;;
21777;SDS011;11050;52.222;20.916;2022-07-01T02:51:02;12.65;;;11.32;;
21777;SDS011;11050;52.222;20.916;2022-07-01T02:53:27;15.48;;;12.27;;
21777;SDS011;11050;52.222;20.916;2022-07-01T02:55:53;15.07;;;11.93;;
21777;SDS011;11050;52.222;20.916;2022-07-01T02:58:19;17.55;;;12.30;;
21777;SDS011;11050;52.222;20.916;2022-07-01T03:00:45;14.88;;;11.18;;
21777;SDS011;11050;52.222;20.916;2022-07-01T03:03:11;13.27;;;11.88;;
21777;SDS011;11050;52.222;20.916;2022-07-01T03:05:37;15.00;;;12.73;;
21777;SDS011;11050;52.222;20.916;2022-07-01T03:08:03;16.17;;;11.57;;
21777;SDS011;11050;52.222;20.916;2022-07-01T03:10:29;14.73;;;11.52;;
21777;SDS011;11050;52.222;20.916;2022-07-01T03:12:54;14.40;;;11.40;;
21777;SDS011;11050;52.222;20.916;2022-07-01T03:15:20;15.48;;;11.55;;
21777;SDS011;11050;52.222;20.916;2022-07-01T03:17:46;15.95;;;11.65;;
21777;SDS011;11050;52.222;20.916;2022-07-01T03:20:16;11.88;;;10.57;;
21777;SDS011;11050;52.222;20.916;2022-07-01T03:22:43;16.38;;;11.18;;
21777;SDS011;11050;52.222;20.916;2022-07-01T03:25:10;13.68;;;11.30;;
21777;SDS011;11050;52.222;20.916;2022-07-01T03:27:37;15.48;;;10.75;;
21777;SDS011;11050;52.222;20.916;2022-07-01T03:30:04;12.70;;;10.82;;
21777;SDS011;11050;52.222;20.916;2022-07-01T03:32:31;16.52;;;11.20;;
21777;SDS011;11050;52.222;20.916;2022-07-01T03:34:58;16.38;;;11.40;;
21777;SDS011;11050;52.222;20.916;2022-07-01T03:37:24;13.18;;;11.13;;
21777;SDS011;11050;52.222;20.916;2022-07-01T03:39:50;14.38;;;11.38;;
21777;SDS011;11050;52.222;20.916;2022-07-01T03:42:18;12.50;;;11.18;;
21777;SDS011;11050;52.222;20.916;2022-07-01T03:44:44;15.45;;;11.80;;
21777;SDS011;11050;52.222;20.916;2022-07-01T03:47:10;13.43;;;11.63;;
21777;SDS011;11050;52.222;20.916;2022-07-01T03:49:36;16.42;;;11.00;;
21777;SDS011;11050;52.222;20.916;2022-07-01T03:52:02;17.80;;;12.25;;
21777;SDS011;11050;52.222;20.916;2022-07-01T03:54:29;16.90;;;12.05;;
21777;SDS011;11050;52.222;20.916;2022-07-01T03:57:16;18.20;;;12.82;;
21777;SDS011;11050;52.222;20.916;2022-07-01T03:59:41;13.90;;;11.68;;
21777;SDS011;11050;52.222;20.916;2022-07-01T04:02:07;16.80;;;11.90;;
21777;SDS011;11050;52.222;20.916;2022-07-01T04:04:33;15.25;;;11.98;;
21777;SDS011;11050;52.222;20.916;2022-07-01T04:07:00;15.32;;;12.32;;
21777;SDS011;11050;52.222;20.916;2022-07-01T04:09:29;14.10;;;11.85;;
21777;SDS011;11050;52.222;20.916;2022-07-01T04:11:56;14.15;;;12.27;;
21777;SDS011;11050;52.222;20.916;2022-07-01T04:14:22;15.13;;;12.10;;
21777;SDS011;11050;52.222;20.916;2022-07-01T04:16:49;16.27;;;12.70;;
21777;SDS011;11050;52.222;20.916;2022-07-01T04:19:16;17.50;;;12.63;;
21777;SDS011;11050;52.222;20.916;2022-07-01T04:21:42;17.27;;;13.13;;
21777;SDS011;11050;52.222;20.916;2022-07-01T04:24:27;21.58;;;13.50;;
21777;SDS011;11050;52.222;20.916;2022-07-01T04:26:57;16.20;;;14.05;;
21777;SDS011;11050;52.222;20.916;2022-07-01T04:29:24;15.27;;;13.68;;
21777;SDS011;11050;52.222;20.916;2022-07-01T04:31:50;17.50;;;13.63;;
21777;SDS011;11050;52.222;20.916;2022-07-01T04:34:15;20.05;;;14.18;;
21777;SDS011;11050;52.222;20.916;2022-07-01T04:36:41;16.20;;;14.50;;
21777;SDS011;11050;52.222;20.916;2022-07-01T04:39:07;19.00;;;13.80;;
21777;SDS011;11050;52.222;20.916;2022-07-01T04:41:33;15.70;;;14.00;;
21777;SDS011;11050;52.222;20.916;2022-07-01T04:44:17;18.58;;;15.20;;
21777;SDS011;11050;52.222;20.916;2022-07-01T04:46:44;18.40;;;16.50;;
21777;SDS011;11050;52.222;20.916;2022-07-01T04:49:10;17.92;;;16.08;;
21777;SDS011;11050;52.222;20.916;2022-07-01T04:51:36;19.40;;;15.38;;
21777;SDS011;11050;52.222;20.916;2022-07-01T04:54:03;20.02;;;16.83;;
21777;SDS011;11050;52.222;20.916;2022-07-01T04:56:31;22.20;;;16.13;;
21777;SDS011;11050;52.222;20.916;2022-07-01T04:58:58;17.95;;;16.05;;
21777;SDS011;11050;52.222;20.916;2022-07-01T05:01:25;19.08;;;16.65;;
21777;SDS011;11050;52.222;20.916;2022-07-01T05:03:51;20.88;;;17.70;;
21777;SDS011;11050;52.222;20.916;2022-07-01T05:06:17;19.77;;;17.35;;
21777;SDS011;11050;52.222;20.916;2022-07-01T05:08:43;20.10;;;17.88;;
21777;SDS011;11050;52.222;20.916;2022-07-01T05:11:09;23.90;;;17.88;;
21777;SDS011;11050;52.222;20.916;2022-07-01T05:13:35;18.58;;;16.65;;
21777;SDS011;11050;52.222;20.916;2022-07-01T05:16:02;18.70;;;16.70;;
21777;SDS011;11050;52.222;20.916;2022-07-01T05:18:29;19.42;;;17.48;;
21777;SDS011;11050;52.222;20.916;2022-07-01T05:21:13;22.27;;;17.27;;
21777;SDS011;11050;52.222;20.916;2022-07-01T05:23:58;20.33;;;18.15;;
21777;SDS011;11050;52.222;20.916;2022-07-01T05:26:24;19.85;;;17.70;;
21777;SDS011;11050;52.222;20.916;2022-07-01T05:28:51;19.65;;;17.77;;
21777;SDS011;11050;52.222;20.916;2022-07-01T05:31:18;20.85;;;17.52;;
21777;SDS011;11050;52.222;20.916;2022-07-01T05:33:45;20.15;;;17.98;;
21777;SDS011;11050;52.222;20.916;2022-07-01T05:36:12;20.35;;;18.33;;
21777;SDS011;11050;52.222;20.916;2022-07-01T05:38:39;24.95;;;18.52;;
21777;SDS011;11050;52.222;20.916;2022-07-01T05:41:05;19.65;;;17.60;;
21777;SDS011;11050;52.222;20.916;2022-07-01T05:43:32;19.30;;;17.35;;
21777;SDS011;11050;52.222;20.916;2022-07-01T05:45:59;19.27;;;17.30;;
21777;SDS011;11050;52.222;20.916;2022-07-01T05:48:25;22.85;;;17.55;;
21777;SDS011;11050;52.222;20.916;2022-07-01T05:50:52;19.98;;;18.05;;
21777;SDS011;11050;52.222;20.916;2022-07-01T05:53:18;19.67;;;17.67;;
21777;SDS011;11050;52.222;20.916;2022-07-01T05:55:44;19.52;;;17.58;;
21777;SDS011;11050;52.222;20.916;2022-07-01T05:58:10;22.83;;;18.65;;
21777;SDS011;11050;52.222;20.916;2022-07-01T06:00:38;22.88;;;18.10;;
21777;SDS011;11050;52.222;20.916;2022-07-01T06:03:11;20.25;;;18.30;;
21777;SDS011;11050;52.222;20.916;2022-07-01T06:05:39;20.90;;;18.20;;
21777;SDS011;11050;52.222;20.916;2022-07-01T06:08:06;20.02;;;17.90;;
21777;SDS011;11050;52.222;20.916;2022-07-01T06:10:33;19.50;;;17.52;;
21777;SDS011;11050;52.222;20.916;2022-07-01T06:13:00;19.83;;;17.38;;
21777;SDS011;11050;52.222;20.916;2022-07-01T06:15:26;19.75;;;17.02;;
21777;SDS011;11050;52.222;20.916;2022-07-01T06:17:53;23.25;;;17.25;;
21777;SDS011;11050;52.222;20.916;2022-07-01T06:20:19;23.02;;;18.20;;
21777;SDS011;11050;52.222;20.916;2022-07-01T06:22:45;27.20;;;18.15;;
21777;SDS011;11050;52.222;20.916;2022-07-01T06:25:11;21.67;;;17.95;;
21777;SDS011;11050;52.222;20.916;2022-07-01T06:27:38;25.58;;;18.08;;
21777;SDS011;11050;52.222;20.916;2022-07-01T06:30:09;19.55;;;17.40;;
21777;SDS011;11050;52.222;20.916;2022-07-01T06:32:36;22.40;;;17.52;;
21777;SDS011;11050;52.222;20.916;2022-07-01T06:35:03;19.13;;;17.33;;
21777;SDS011;11050;52.222;20.916;2022-07-01T06:37:30;20.15;;;17.55;;
21777;SDS011;11050;52.222;20.916;2022-07-01T06:39:58;20.15;;;17.55;;
21777;SDS011;11050;52.222;20.916;2022-07-01T06:42:25;23.10;;;17.60;;
21777;SDS011;11050;52.222;20.916;2022-07-01T06:44:51;18.30;;;16.60;;
21777;SDS011;11050;52.222;20.916;2022-07-01T06:47:17;18.27;;;16.40;;
21777;SDS011;11050;52.222;20.916;2022-07-01T06:49:43;18.95;;;17.00;;
21777;SDS011;11050;52.222;20.916;2022-07-01T06:52:09;18.08;;;15.93;;
21777;SDS011;11050;52.222;20.916;2022-07-01T06:54:35;18.00;;;16.17;;
21777;SDS011;11050;52.222;20.916;2022-07-01T06:57:04;18.45;;;16.40;;
21777;SDS011;11050;52.222;20.916;2022-07-01T06:59:31;18.67;;;16.83;;
21777;SDS011;11050;52.222;20.916;2022-07-01T07:01:57;19.13;;;17.15;;
21777;SDS011;11050;52.222;20.916;2022-07-01T07:04:23;18.75;;;17.05;;
21777;SDS011;11050;52.222;20.916;2022-07-01T07:06:49;19.88;;;16.48;;
21777;SDS011;11050;52.222;20.916;2022-07-01T07:09:15;20.40;;;17.10;;
21777;SDS011;11050;52.222;20.916;2022-07-01T07:11:41;19.40;;;17.27;;
21777;SDS011;11050;52.222;20.916;2022-07-01T07:14:07;19.48;;;17.42;;
21777;SDS011;11050;52.222;20.916;2022-07-01T07:16:32;21.88;;;17.15;;
21777;SDS011;11050;52.222;20.916;2022-07-01T07:18:58;30.95;;;18.50;;
21777;SDS011;11050;52.222;20.916;2022-07-01T07:21:24;19.70;;;16.98;;
21777;SDS011;11050;52.222;20.916;2022-07-01T07:23:50;21.90;;;17.35;;
21777;SDS011;11050;52.222;20.916;2022-07-01T07:26:16;18.65;;;16.65;;
21777;SDS011;11050;52.222;20.916;2022-07-01T07:28:41;18.65;;;16.73;;
21777;SDS011;11050;52.222;20.916;2022-07-01T07:31:08;23.58;;;17.63;;
21777;SDS011;11050;52.222;20.916;2022-07-01T07:33:33;24.90;;;16.70;;
21777;SDS011;11050;52.222;20.916;2022-07-01T07:35:59;21.35;;;16.63;;
21777;SDS011;11050;52.222;20.916;2022-07-01T07:38:25;19.90;;;16.75;;
21777;SDS011;11050;52.222;20.916;2022-07-01T07:40:51;19.35;;;17.42;;
21777;SDS011;11050;52.222;20.916;2022-07-01T07:43:16;22.98;;;16.92;;
21777;SDS011;11050;52.222;20.916;2022-07-01T07:45:42;25.15;;;17.25;;
21777;SDS011;11050;52.222;20.916;2022-07-01T07:48:08;19.42;;;16.52;;
21777;SDS011;11050;52.222;20.916;2022-07-01T07:50:34;23.98;;;17.63;;
21777;SDS011;11050;52.222;20.916;2022-07-01T07:53:00;24.85;;;16.77;;
21777;SDS011;11050;52.222;20.916;2022-07-01T07:55:27;25.92;;;16.08;;
21777;SDS011;11050;52.222;20.916;2022-07-01T07:57:53;20.70;;;16.65;;
21777;SDS011;11050;52.222;20.916;2022-07-01T08:00:19;20.92;;;16.75;;
21777;SDS011;11050;52.222;20.916;2022-07-01T08:02:46;18.35;;;16.00;;
21777;SDS011;11050;52.222;20.916;2022-07-01T08:05:12;20.50;;;16.35;;
21777;SDS011;11050;52.222;20.916;2022-07-01T08:07:39;20.42;;;15.48;;
21777;SDS011;11050;52.222;20.916;2022-07-01T08:10:08;19.35;;;15.43;;
21777;SDS011;11050;52.222;20.916;2022-07-01T08:12:37;19.73;;;14.88;;
21777;SDS011;11050;52.222;20.916;2022-07-01T08:15:03;20.33;;;14.93;;
21777;SDS011;11050;52.222;20.916;2022-07-01T08:17:31;21.55;;;15.65;;
21777;SDS011;11050;52.222;20.916;2022-07-01T08:19:57;21.23;;;15.70;;
21777;SDS011;11050;52.222;20.916;2022-07-01T08:22:22;23.85;;;15.65;;
21777;SDS011;11050;52.222;20.916;2022-07-01T08:24:48;20.95;;;15.68;;
21777;SDS011;11050;52.222;20.916;2022-07-01T08:27:14;20.73;;;16.35;;
21777;SDS011;11050;52.222;20.916;2022-07-01T08:29:40;20.65;;;15.00;;
21777;SDS011;11050;52.222;20.916;2022-07-01T08:32:06;16.02;;;14.23;;
21777;SDS011;11050;52.222;20.916;2022-07-01T08:34:33;19.25;;;14.40;;
21777;SDS011;11050;52.222;20.916;2022-07-01T08:37:00;15.45;;;13.65;;
21777;SDS011;11050;52.222;20.916;2022-07-01T08:39:28;15.48;;;13.98;;
21777;SDS011;11050;52.222;20.916;2022-07-01T08:41:54;20.77;;;14.35;;
21777;SDS011;11050;52.222;20.916;2022-07-01T08:44:21;20.00;;;13.70;;
21777;SDS011;11050;52.222;20.916;2022-07-01T08:46:47;14.88;;;13.10;;
21777;SDS011;11050;52.222;20.916;2022-07-01T08:49:12;14.70;;;13.13;;
21777;SDS011;11050;52.222;20.916;2022-07-01T08:51:38;15.45;;;13.13;;
21777;SDS011;11050;52.222;20.916;2022-07-01T08:54:04;16.58;;;12.95;;
21777;SDS011;11050;52.222;20.916;2022-07-01T08:56:31;14.35;;;12.90;;
21777;SDS011;11050;52.222;20.916;2022-07-01T08:59:06;17.25;;;12.18;;
21777;SDS011;11050;52.222;20.916;2022-07-01T09:01:36;15.10;;;12.10;;
21777;SDS011;11050;52.222;20.916;2022-07-01T09:06:43;14.65;;;10.85;;
21777;SDS011;11050;52.222;20.916;2022-07-01T09:09:17;21.02;;;11.50;;
21777;SDS011;11050;52.222;20.916;2022-07-01T09:11:55;13.85;;;11.20;;
21777;SDS011;11050;52.222;20.916;2022-07-01T09:14:25;15.82;;;11.07;;
21777;SDS011;11050;52.222;20.916;2022-07-01T09:16:58;12.77;;;11.20;;
21777;SDS011;11050;52.222;20.916;2022-07-01T09:19:33;14.05;;;11.48;;
21777;SDS011;11050;52.222;20.916;2022-07-01T09:22:03;15.13;;;11.88;;
21777;SDS011;11050;52.222;20.916;2022-07-01T09:29:45;15.68;;;10.77;;
21777;SDS011;11050;52.222;20.916;2022-07-01T09:32:16;14.70;;;11.05;;
21777;SDS011;11050;52.222;20.916;2022-07-01T09:34:47;12.82;;;10.75;;
21777;SDS011;11050;52.222;20.916;2022-07-01T09:37:20;14.45;;;11.63;;
21777;SDS011;11050;52.222;20.916;2022-07-01T09:39:48;15.95;;;11.27;;
21777;SDS011;11050;52.222;20.916;2022-07-01T09:42:15;21.95;;;11.63;;
21777;SDS011;11050;52.222;20.916;2022-07-01T09:44:53;24.83;;;11.60;;
21777;SDS011;11050;52.222;20.916;2022-07-01T09:47:33;14.18;;;11.10;;
21777;SDS011;11050;52.222;20.916;2022-07-01T09:50:01;18.63;;;11.20;;
21777;SDS011;11050;52.222;20.916;2022-07-01T09:52:28;18.00;;;10.68;;
21777;SDS011;11050;52.222;20.916;2022-07-01T09:54:54;13.23;;;10.40;;
21777;SDS011;11050;52.222;20.916;2022-07-01T09:57:21;15.98;;;10.48;;
21777;SDS011;11050;52.222;20.916;2022-07-01T09:59:48;13.00;;;10.48;;
21777;SDS011;11050;52.222;20.916;2022-07-01T10:02:16;17.08;;;10.75;;
21777;SDS011;11050;52.222;20.916;2022-07-01T10:04:48;13.30;;;10.65;;
21777;SDS011;11050;52.222;20.916;2022-07-01T10:13:13;17.60;;;10.77;;
21777;SDS011;11050;52.222;20.916;2022-07-01T10:15:42;19.77;;;11.30;;
21777;SDS011;11050;52.222;20.916;2022-07-01T10:20:48;12.88;;;10.70;;
21777;SDS011;11050;52.222;20.916;2022-07-01T10:23:15;12.20;;;10.98;;
21777;SDS011;11050;52.222;20.916;2022-07-01T10:25:46;15.55;;;11.65;;
21777;SDS011;11050;52.222;20.916;2022-07-01T10:30:55;14.60;;;10.80;;
21777;SDS011;11050;52.222;20.916;2022-07-01T10:38:35;14.30;;;11.02;;
21777;SDS011;11050;52.222;20.916;2022-07-01T10:41:37;13.95;;;11.15;;
21777;SDS011;11050;52.222;20.916;2022-07-01T10:44:21;12.88;;;10.40;;
21777;SDS011;11050;52.222;20.916;2022-07-01T10:46:53;12.20;;;11.00;;
21777;SDS011;11050;52.222;20.916;2022-07-01T10:52:09;13.82;;;10.15;;
21777;SDS011;11050;52.222;20.916;2022-07-01T10:59:42;11.68;;;9.93;;
21777;SDS011;11050;52.222;20.916;2022-07-01T11:02:14;11.32;;;10.20;;
21777;SDS011;11050;52.222;20.916;2022-07-01T11:04:49;15.57;;;9.30;;
21777;SDS011;11050;52.222;20.916;2022-07-01T11:07:19;14.02;;;9.27;;
21777;SDS011;11050;52.222;20.916;2022-07-01T11:09:48;13.93;;;9.32;;
21777;SDS011;11050;52.222;20.916;2022-07-01T11:12:14;17.70;;;9.52;;
21777;SDS011;11050;52.222;20.916;2022-07-01T11:14:41;15.82;;;9.45;;
21777;SDS011;11050;52.222;20.916;2022-07-01T11:17:09;11.70;;;8.65;;
21777;SDS011;11050;52.222;20.916;2022-07-01T11:19:35;15.93;;;8.50;;
21777;SDS011;11050;52.222;20.916;2022-07-01T11:22:02;15.23;;;9.23;;
21777;SDS011;11050;52.222;20.916;2022-07-01T11:24:30;11.95;;;8.98;;
21777;SDS011;11050;52.222;20.916;2022-07-01T11:27:05;9.05;;;8.25;;
21777;SDS011;11050;52.222;20.916;2022-07-01T11:29:32;10.32;;;8.23;;
21777;SDS011;11050;52.222;20.916;2022-07-01T11:31:59;11.68;;;8.70;;
21777;SDS011;11050;52.222;20.916;2022-07-01T11:34:28;14.70;;;9.23;;
21777;SDS011;11050;52.222;20.916;2022-07-01T11:36:55;14.52;;;8.48;;
21777;SDS011;11050;52.222;20.916;2022-07-01T11:39:40;14.43;;;9.00;;
21777;SDS011;11050;52.222;20.916;2022-07-01T11:42:08;14.15;;;9.80;;
21777;SDS011;11050;52.222;20.916;2022-07-01T11:44:40;15.88;;;9.60;;
21777;SDS011;11050;52.222;20.916;2022-07-01T11:47:12;10.43;;;8.77;;
21777;SDS011;11050;52.222;20.916;2022-07-01T11:49:49;13.40;;;8.20;;
21777;SDS011;11050;52.222;20.916;2022-07-01T11:52:16;10.23;;;8.95;;
21777;SDS011;11050;52.222;20.916;2022-07-01T11:54:45;13.68;;;8.40;;
21777;SDS011;11050;52.222;20.916;2022-07-01T11:57:14;9.98;;;8.95;;
21777;SDS011;11050;52.222;20.916;2022-07-01T11:59:48;10.50;;;8.95;;
21777;SDS011;11050;52.222;20.916;2022-07-01T12:02:18;13.35;;;8.48;;
21777;SDS011;11050;52.222;20.916;2022-07-01T12:04:50;14.10;;;8.60;;
21777;SDS011;11050;52.222;20.916;2022-07-01T12:07:19;10.20;;;9.00;;
21777;SDS011;11050;52.222;20.916;2022-07-01T12:09:46;9.35;;;8.38;;
21777;SDS011;11050;52.222;20.916;2022-07-01T12:12:17;10.70;;;8.35;;
21777;SDS011;11050;52.222;20.916;2022-07-01T12:14:52;14.13;;;8.90;;
21777;SDS011;11050;52.222;20.916;2022-07-01T12:17:21;14.45;;;8.82;;
21777;SDS011;11050;52.222;20.916;2022-07-01T12:19:49;13.10;;;8.82;;
21777;SDS011;11050;52.222;20.916;2022-07-01T12:22:17;13.07;;;7.85;;
21777;SDS011;11050;52.222;20.916;2022-07-01T12:24:49;10.25;;;7.70;;
21777;SDS011;11050;52.222;20.916;2022-07-01T12:27:32;9.57;;;8.32;;
21777;SDS011;11050;52.222;20.916;2022-07-01T12:30:00;9.25;;;8.45;;
21777;SDS011;11050;52.222;20.916;2022-07-01T12:32:27;11.57;;;8.50;;
21777;SDS011;11050;52.222;20.916;2022-07-01T12:34:55;11.10;;;8.23;;
21777;SDS011;11050;52.222;20.916;2022-07-01T12:37:27;11.05;;;8.75;;
21777;SDS011;11050;52.222;20.916;2022-07-01T12:39:54;11.77;;;8.23;;
21777;SDS011;11050;52.222;20.916;2022-07-01T12:45:08;10.27;;;8.73;;
21777;SDS011;11050;52.222;20.916;2022-07-01T12:47:49;10.70;;;8.30;;
21777;SDS011;11050;52.222;20.916;2022-07-01T12:55:42;11.50;;;8.25;;
21777;SDS011;11050;52.222;20.916;2022-07-01T12:58:19;12.55;;;7.25;;
21777;SDS011;11050;52.222;20.916;2022-07-01T13:00:49;11.48;;;8.25;;
21777;SDS011;11050;52.222;20.916;2022-07-01T13:03:22;8.60;;;7.75;;
21777;SDS011;11050;52.222;20.916;2022-07-01T13:05:54;14.65;;;8.30;;
21777;SDS011;11050;52.222;20.916;2022-07-01T13:08:22;14.10;;;7.78;;
21777;SDS011;11050;52.222;20.916;2022-07-01T13:10:48;11.13;;;8.15;;
21777;SDS011;11050;52.222;20.916;2022-07-01T13:13:14;17.13;;;7.28;;
21777;SDS011;11050;52.222;20.916;2022-07-01T13:15:44;8.95;;;8.05;;
21777;SDS011;11050;52.222;20.916;2022-07-01T13:18:10;8.25;;;7.45;;
21777;SDS011;11050;52.222;20.916;2022-07-01T13:20:39;11.43;;;6.97;;
21777;SDS011;11050;52.222;20.916;2022-07-01T13:23:06;10.40;;;7.13;;
21777;SDS011;11050;52.222;20.916;2022-07-01T13:25:32;12.32;;;7.68;;
21777;SDS011;11050;52.222;20.916;2022-07-01T13:27:58;9.85;;;7.43;;
21777;SDS011;11050;52.222;20.916;2022-07-01T13:30:24;8.70;;;7.03;;
21777;SDS011;11050;52.222;20.916;2022-07-01T13:32:50;13.68;;;7.75;;
21777;SDS011;11050;52.222;20.916;2022-07-01T13:35:19;9.00;;;7.22;;
21777;SDS011;11050;52.222;20.916;2022-07-01T13:37:47;10.30;;;7.65;;
21777;SDS011;11050;52.222;20.916;2022-07-01T13:40:14;11.27;;;7.70;;
21777;SDS011;11050;52.222;20.916;2022-07-01T13:42:40;11.95;;;8.50;;
21777;SDS011;11050;52.222;20.916;2022-07-01T13:45:06;8.88;;;7.97;;
21777;SDS011;11050;52.222;20.916;2022-07-01T13:47:32;9.60;;;7.47;;
21777;SDS011;11050;52.222;20.916;2022-07-01T13:49:58;10.15;;;7.57;;
21777;SDS011;11050;52.222;20.916;2022-07-01T13:52:25;13.13;;;7.72;;
21777;SDS011;11050;52.222;20.916;2022-07-01T13:54:55;13.95;;;7.90;;
21777;SDS011;11050;52.222;20.916;2022-07-01T13:57:22;10.15;;;6.78;;
21777;SDS011;11050;52.222;20.916;2022-07-01T13:59:48;12.43;;;7.00;;
21777;SDS011;11050;52.222;20.916;2022-07-01T14:02:14;8.77;;;7.57;;
21777;SDS011;11050;52.222;20.916;2022-07-01T14:04:40;10.98;;;7.00;;
21777;SDS011;11050;52.222;20.916;2022-07-01T14:07:06;8.82;;;7.28;;
21777;SDS011;11050;52.222;20.916;2022-07-01T14:09:33;8.98;;;7.45;;
21777;SDS011;11050;52.222;20.916;2022-07-01T14:12:00;9.15;;;7.30;;
21777;SDS011;11050;52.222;20.916;2022-07-01T14:14:26;8.20;;;6.65;;
21777;SDS011;11050;52.222;20.916;2022-07-01T14:16:52;7.47;;;6.78;;
21777;SDS011;11050;52.222;20.916;2022-07-01T14:19:18;8.18;;;6.82;;
21777;SDS011;11050;52.222;20.916;2022-07-01T14:21:43;7.22;;;6.63;;
21777;SDS011;11050;52.222;20.916;2022-07-01T14:24:13;7.30;;;6.47;;
21777;SDS011;11050;52.222;20.916;2022-07-01T14:26:40;12.20;;;6.85;;
21777;SDS011;11050;52.222;20.916;2022-07-01T14:29:06;11.93;;;7.18;;
21777;SDS011;11050;52.222;20.916;2022-07-01T14:31:32;11.63;;;7.32;;
21777;SDS011;11050;52.222;20.916;2022-07-01T14:33:58;11.10;;;7.13;;
21777;SDS011;11050;52.222;20.916;2022-07-01T14:36:24;10.00;;;6.55;;
21777;SDS011;11050;52.222;20.916;2022-07-01T14:38:49;9.57;;;7.05;;
21777;SDS011;11050;52.222;20.916;2022-07-01T14:41:15;11.05;;;7.18;;
21777;SDS011;11050;52.222;20.916;2022-07-01T14:43:41;11.38;;;7.43;;
21777;SDS011;11050;52.222;20.916;2022-07-01T14:46:07;7.72;;;7.00;;
21777;SDS011;11050;52.222;20.916;2022-07-01T14:48:36;8.25;;;7.25;;
21777;SDS011;11050;52.222;20.916;2022-07-01T14:51:03;7.90;;;6.78;;
21777;SDS011;11050;52.222;20.916;2022-07-01T14:53:30;10.23;;;7.68;;
21777;SDS011;11050;52.222;20.916;2022-07-01T14:55:57;14.63;;;7.80;;
21777;SDS011;11050;52.222;20.916;2022-07-01T14:58:22;12.95;;;7.80;;